.
WxDataArchive / Data Records for 2006-04-28
2006-04-27 April 2006 2006-04-29

Data Records for Friday, 28 April 2006

Time	Temp	Chill	HIndex	Humid	Dewpt	 Wind 	HiWind	WindDir	Rain 	Barom 
-----	----	-----	------	-----	-----	------	------	-------	-----	----- 
00:00	49.8	49.8	49.8	54	33.8	3	5	112	0.00	30.062 
00:05	49.6	49.6	49.6	55	34.1	2	5	90	0.00	30.062 
00:10	49.4	49.4	49.4	55	33.9	2	6	90	0.00	30.062 
00:15	49.1	49.1	49.1	56	34.1	2	5	90	0.00	30.062 
00:20	48.9	48.9	48.9	55	33.5	2	4	90	0.00	30.062 
00:25	48.8	48.8	48.8	54	32.9	2	6	112	0.00	30.062 
00:30	48.6	48.6	48.6	54	32.7	3	5	90	0.00	30.072 
00:35	48.5	48.5	48.5	54	32.6	2	6	90	0.00	30.072 
00:40	48.2	48.2	48.2	54	32.3	2	5	90	0.00	30.072 
00:45	48.0	48.0	48.0	54	32.2	3	6	90	0.00	30.078 
00:50	47.9	47.9	47.9	54	32.1	2	6	90	0.00	30.078 
00:55	47.6	47.6	47.6	55	32.2	2	4	90	0.00	30.078 
01:00	47.4	47.4	47.4	54	31.6	2	5	90	0.00	30.084 
01:05	47.1	47.1	47.1	55	31.8	2	5	68	0.00	30.084 
01:10	47.0	47.0	47.0	55	31.7	2	5	90	0.00	30.084 
01:15	46.7	46.7	46.7	56	31.8	1	3	90	0.00	30.088 
01:20	46.5	46.5	46.5	56	31.7	2	4	90	0.00	30.088 
01:25	46.4	46.4	46.4	57	32.0	1	3	90	0.00	30.088 
01:30	46.1	46.1	46.1	58	32.2	1	4	90	0.00	30.091 
01:35	45.8	45.8	45.8	58	31.9	1	3	90	0.00	30.091 
01:40	45.5	45.5	45.5	58	31.6	1	2	90	0.00	30.091 
01:45	45.4	45.4	45.4	58	31.5	1	3	90	0.00	30.094 
01:50	45.4	45.4	45.4	58	31.5	1	3	90	0.00	30.094 
01:55	45.2	45.2	45.2	59	31.7	1	3	90	0.00	30.094 
02:00	45.1	45.1	45.1	60	32.1	0	2	90	0.00	30.095 
02:05	44.8	44.8	44.8	60	31.8	0	2	90	0.00	30.095 
02:10	44.5	44.5	44.5	62	32.3	0	2	90	0.00	30.095 
02:15	44.2	44.2	44.2	61	31.6	1	3	90	0.00	30.095 
02:20	44.1	44.1	44.1	62	31.9	0	1	90	0.00	30.095 
02:25	43.9	43.9	43.9	61	31.3	0	1	90	0.00	30.095 
02:30	43.8	43.8	43.8	62	31.6	0	1	90	0.00	30.096 
02:35	43.5	43.5	43.5	63	31.8	0	0	---	0.00	30.096 
02:40	43.1	43.1	43.1	63	31.4	0	0	---	0.00	30.096 
02:45	42.6	42.6	42.6	64	31.3	0	0	---	0.00	30.101 
02:50	42.3	42.3	42.3	65	31.4	0	0	---	0.00	30.101 
02:55	42.1	42.1	42.1	65	31.2	0	1	90	0.00	30.101 
03:00	41.9	41.9	41.9	65	31.0	0	1	90	0.00	30.105 
03:05	42.1	42.1	42.1	64	30.8	0	2	90	0.00	30.105 
03:10	42.2	42.2	42.2	64	30.9	0	1	90	0.00	30.105 
03:15	42.1	42.1	42.1	64	30.8	0	1	90	0.00	30.108 
03:20	42.2	42.2	42.2	64	30.9	0	1	90	0.00	30.108 
03:25	41.9	41.9	41.9	64	30.6	0	0	---	0.00	30.108 
03:30	41.8	41.8	41.8	64	30.5	0	0	---	0.00	30.113 
03:35	41.5	41.5	41.5	65	30.6	0	1	90	0.00	30.113 
03:40	41.2	41.2	41.2	65	30.3	0	1	90	0.00	30.113 
03:45	41.1	41.1	41.1	66	30.6	0	0	---	0.00	30.120 
03:50	40.8	40.8	40.8	67	30.7	0	1	90	0.00	30.120 
03:55	40.8	40.8	40.8	67	30.7	0	1	90	0.00	30.120 
04:00	41.1	41.1	41.1	66	30.6	1	2	90	0.00	30.125 
04:05	41.3	41.3	41.3	65	30.4	1	2	90	0.00	30.125 
04:10	41.5	41.5	41.5	65	30.6	0	2	90	0.00	30.125 
04:15	41.6	41.6	41.6	65	30.7	1	2	90	0.00	30.127 
04:20	41.8	41.8	41.8	65	30.9	1	3	90	0.00	30.127 
04:25	41.8	41.8	41.8	64	30.5	1	2	90	0.00	30.127 
04:30	41.6	41.6	41.6	65	30.7	0	2	90	0.00	30.129 
04:35	41.5	41.5	41.5	65	30.6	1	2	90	0.00	30.129 
04:40	41.5	41.5	41.5	65	30.6	1	2	90	0.00	30.129 
04:45	41.5	41.5	41.5	65	30.6	1	3	90	0.00	30.134 
04:50	41.5	41.5	41.5	65	30.6	1	3	90	0.00	30.134 
04:55	41.5	41.5	41.5	65	30.6	1	3	90	0.00	30.134 
05:00	41.5	41.5	41.5	65	30.6	1	3	90	0.00	30.142 
05:05	41.2	41.2	41.2	67	31.1	0	2	90	0.00	30.142 
05:10	41.1	41.1	41.1	66	30.6	1	4	90	0.00	30.142 
05:15	41.1	41.1	41.1	66	30.6	1	2	90	0.00	30.148 
05:20	40.9	40.9	40.9	66	30.4	1	2	90	0.00	30.148 
05:25	40.8	40.8	40.8	67	30.7	0	1	90	0.00	30.148 
05:30	40.6	40.6	40.6	67	30.5	0	2	90	0.00	30.155 
05:35	40.5	40.5	40.5	67	30.4	0	2	90	0.00	30.155 
05:40	40.3	40.3	40.3	69	31.0	0	2	90	0.00	30.155 
05:45	40.2	40.2	40.2	69	30.9	1	2	90	0.00	30.161 
05:50	40.1	40.1	40.1	69	30.8	0	1	90	0.00	30.161 
05:55	39.8	39.8	39.8	70	30.8	0	2	68	0.00	30.161 
06:00	39.6	39.6	39.6	71	31.0	0	4	68	0.00	30.171 
06:05	39.6	39.6	39.6	71	31.0	0	2	45	0.00	30.171 
06:10	39.6	39.6	39.6	71	31.0	1	3	90	0.00	30.171 
06:15	39.6	39.6	39.6	72	31.3	0	1	90	0.00	30.175 
06:20	39.5	39.5	39.5	72	31.2	1	2	90	0.00	30.175 
06:25	39.3	39.3	39.3	72	31.0	1	2	90	0.00	30.175 
06:30	39.2	39.2	39.2	73	31.3	1	2	90	0.00	30.180 
06:35	39.2	39.2	39.2	73	31.3	0	1	90	0.00	30.180 
06:40	38.9	38.9	38.9	73	31.0	0	0	---	0.00	30.180 
06:45	38.6	38.6	38.6	73	30.7	0	1	90	0.00	30.190 
06:50	38.5	38.5	38.5	73	30.6	1	3	90	0.00	30.190 
06:55	38.6	38.6	38.6	73	30.7	1	3	90	0.00	30.190 
07:00	38.6	38.6	38.6	73	30.7	0	2	90	0.00	30.196 
07:05	38.5	38.5	38.5	73	30.6	0	1	90	0.00	30.196 
07:10	38.5	38.5	38.5	73	30.6	1	2	90	0.00	30.196 
07:15	38.6	38.6	38.6	72	30.4	0	2	90	0.00	30.207 
07:20	38.9	38.9	38.9	70	30.0	1	2	112	0.00	30.207 
07:25	39.2	39.2	39.2	70	30.3	0	2	90	0.00	30.207 
07:30	39.8	39.8	39.8	68	30.1	0	2	90	0.00	30.212 
07:35	40.5	40.5	40.5	65	29.7	1	3	45	0.00	30.212 
07:40	41.1	41.1	41.1	64	29.9	1	3	45	0.00	30.212 
07:45	41.5	41.5	41.5	61	29.1	1	3	68	0.00	30.214 
07:50	41.9	41.9	41.9	61	29.4	1	3	45	0.00	30.214 
07:55	42.3	42.3	42.3	60	29.4	1	3	112	0.00	30.214 
08:00	42.6	42.6	42.6	57	28.4	2	3	112	0.00	30.225 
08:05	42.8	42.8	42.8	58	29.1	1	4	112	0.00	30.225 
08:10	43.2	43.2	43.2	58	29.4	1	2	112	0.00	30.225 
08:15	43.6	43.6	43.6	54	28.1	1	4	22	0.00	30.233 
08:20	44.2	44.2	44.2	55	29.1	2	5	90	0.00	30.233 
08:25	44.3	44.3	44.3	53	28.3	3	6	90	0.00	30.233 
08:30	44.5	44.5	44.5	54	28.9	2	5	112	0.00	30.239 
08:35	45.1	45.1	45.1	52	28.5	2	4	90	0.00	30.239 
08:40	45.4	45.4	45.4	52	28.8	3	10	112	0.00	30.239 
08:45	45.2	43.3	45.2	51	28.2	4	10	112	0.00	30.233 
08:50	45.2	43.3	45.2	52	28.6	4	7	90	0.00	30.233 
08:55	45.5	43.7	45.5	52	28.9	4	10	112	0.00	30.233 
09:00	46.0	44.2	46.0	52	29.4	4	9	90	0.00	30.244 
09:05	46.4	46.4	46.4	52	29.7	3	6	90	0.00	30.244 
09:10	46.7	45.1	46.7	52	30.0	4	9	90	0.00	30.244 
09:15	46.8	45.2	46.8	52	30.1	4	7	112	0.00	30.253 
09:20	47.4	47.4	47.4	54	31.6	3	6	90	0.00	30.253 
09:25	47.9	47.9	47.9	52	31.1	3	7	112	0.00	30.253 
09:30	48.3	48.3	48.3	52	31.5	3	5	112	0.00	30.248 
09:35	48.5	48.5	48.5	52	31.7	3	6	112	0.00	30.248 
09:40	48.9	48.9	48.9	54	33.0	3	6	90	0.00	30.248 
09:45	49.5	49.5	49.5	51	32.1	2	5	90	0.00	30.253 
09:50	49.8	49.8	49.8	51	32.4	3	7	90	0.00	30.253 
09:55	50.2	50.2	50.2	50	32.3	3	7	90	0.00	30.253 
10:00	50.7	50.7	50.7	53	34.2	3	6	112	0.00	30.247 
10:05	51.3	51.3	51.3	51	33.8	2	5	112	0.00	30.247 
10:10	51.6	51.6	51.6	48	32.6	4	7	90	0.00	30.247 
10:15	51.7	51.7	51.7	48	32.6	3	7	112	0.00	30.255 
10:20	52.6	52.6	52.6	49	34.0	3	5	112	0.00	30.255 
10:25	53.1	53.1	53.1	47	33.4	3	6	90	0.00	30.255 
10:30	53.3	53.3	53.3	47	33.6	3	7	90	0.00	30.257 
10:35	53.9	53.9	53.9	49	35.2	3	7	90	0.00	30.257 
10:40	54.1	54.1	54.1	48	34.8	3	6	90	0.00	30.257 
10:45	54.5	54.5	54.5	46	34.1	3	7	90	0.00	30.254 
10:50	55.0	55.0	55.0	50	36.7	3	7	112	0.00	30.254 
10:55	54.7	54.7	54.7	47	34.9	4	12	90	0.00	30.254 
11:00	54.5	54.5	54.5	48	35.2	4	12	90	0.00	30.254 
11:05	55.0	55.0	55.0	44	33.5	4	7	90	0.00	30.254 
11:10	55.1	55.1	55.1	44	33.6	4	9	112	0.00	30.254 
11:15	55.7	55.7	55.7	43	33.6	4	7	112	0.00	30.257 
11:20	55.9	55.9	55.9	44	34.3	4	8	112	0.00	30.257 
11:25	56.5	56.5	56.5	40	32.5	4	9	90	0.00	30.257 
11:30	56.7	56.7	56.7	41	33.3	4	9	112	0.00	30.260 
11:35	56.9	56.9	56.9	37	30.9	4	7	90	0.00	30.260 
11:40	57.8	57.8	57.8	40	33.6	3	6	112	0.00	30.260 
11:45	58.3	58.3	58.3	40	34.1	3	6	90	0.00	30.258 
11:50	58.1	58.1	58.1	45	36.9	4	9	90	0.00	30.258 
11:55	58.4	58.4	58.4	37	32.2	3	9	90	0.00	30.258 
12:00	59.3	59.3	59.3	36	32.4	3	7	112	0.00	30.255 
12:05	59.9	59.9	59.9	35	32.2	2	6	90	0.00	30.255 
12:10	60.1	60.1	60.1	31	29.4	4	10	90	0.00	30.255 
12:15	59.6	59.6	59.6	35	31.9	4	9	112	0.00	30.259 
12:20	60.1	60.1	60.1	33	30.9	2	5	90	0.00	30.259 
12:25	60.1	60.1	60.1	30	28.6	4	11	112	0.00	30.259 
12:30	60.1	60.1	60.1	35	32.4	4	9	90	0.00	30.259 
12:35	60.5	60.5	60.5	34	32.0	3	6	90	0.00	30.259 
12:40	61.2	61.2	61.2	32	31.1	4	7	90	0.00	30.259 
12:45	61.3	61.3	61.3	33	32.0	3	6	112	0.00	30.256 
12:50	61.3	61.3	61.3	36	34.1	4	7	90	0.00	30.256 
12:55	61.6	61.6	61.6	34	33.0	4	9	90	0.00	30.256 
13:00	61.6	61.6	61.6	36	34.4	4	10	90	0.00	30.246 
13:05	61.5	61.5	61.5	35	33.6	4	9	90	0.00	30.246 
13:10	61.6	61.6	61.6	38	35.7	3	7	112	0.00	30.246 
13:15	62.1	62.1	62.1	38	36.2	3	8	112	0.00	30.244 
13:20	62.3	62.3	62.3	37	35.7	3	6	112	0.00	30.244 
13:25	62.3	62.3	62.3	35	34.3	4	7	90	0.00	30.244 
13:30	62.3	62.3	62.3	32	32.1	4	11	90	0.00	30.242 
13:35	62.1	62.1	62.1	37	35.5	4	11	90	0.00	30.242 
13:40	62.0	62.0	62.0	32	31.8	4	9	90	0.00	30.242 
13:45	62.4	62.4	62.4	34	33.7	3	6	90	0.00	30.239 
13:50	62.6	62.6	62.6	31	31.5	4	9	90	0.00	30.239 
13:55	62.6	62.6	62.6	39	37.3	4	8	90	0.00	30.239 
14:00	62.7	62.7	62.7	34	33.9	5	9	112	0.00	30.227 
14:05	63.4	63.4	63.4	36	36.0	3	9	90	0.00	30.227 
14:10	63.5	63.5	63.5	36	36.1	3	7	112	0.00	30.227 
14:15	63.2	63.2	63.2	33	33.6	4	9	90	0.00	30.229 
14:20	63.2	63.2	63.2	33	33.6	3	10	90	0.00	30.229 
14:25	63.9	63.9	63.9	36	36.4	3	6	90	0.00	30.229 
14:30	63.9	63.9	63.9	35	35.7	3	6	112	0.00	30.227 
14:35	64.3	64.3	64.3	33	34.6	3	10	68	0.00	30.227 
14:40	63.9	63.9	63.9	31	32.7	4	10	90	0.00	30.227 
14:45	63.7	63.7	63.7	31	32.5	4	10	90	0.00	30.224 
14:50	64.0	64.0	64.0	31	32.8	3	7	90	0.00	30.224 
14:55	64.2	64.2	64.2	34	35.2	5	11	90	0.00	30.224 
15:00	64.2	64.2	64.2	31	32.9	4	10	90	0.00	30.224 
15:05	64.2	64.2	64.2	32	33.7	2	7	90	0.00	30.224 
15:10	64.5	64.5	64.5	33	34.8	3	8	112	0.00	30.224 
15:15	64.8	64.8	64.8	34	35.8	3	7	112	0.00	30.219 
15:20	65.0	65.0	65.0	30	32.8	5	11	90	0.00	30.219 
15:25	64.8	64.8	64.8	29	31.8	3	8	90	0.00	30.219 
15:30	64.7	64.7	64.7	36	37.1	2	8	112	0.00	30.215 
15:35	65.0	65.0	65.0	32	34.4	3	9	112	0.00	30.215 
15:40	65.0	65.0	65.0	27	30.2	3	7	90	0.00	30.215 
15:45	65.0	65.0	65.0	30	32.8	2	5	90	0.00	30.218 
15:50	65.0	65.0	65.0	31	33.6	3	11	112	0.00	30.218 
15:55	65.3	65.3	65.3	34	36.2	2	7	112	0.00	30.218 
16:00	65.5	65.5	65.5	27	30.6	2	6	112	0.00	30.213 
16:05	65.3	65.3	65.3	34	36.2	4	7	90	0.00	30.213 
16:10	65.5	65.5	65.5	32	34.9	2	7	90	0.00	30.213 
16:15	65.5	65.5	65.5	27	30.6	4	6	112	0.00	30.201 
16:20	65.6	65.6	65.6	31	34.1	3	7	90	0.00	30.201 
16:25	65.5	65.5	65.5	29	32.4	5	10	90	0.00	30.201 
16:30	65.5	65.5	65.5	27	30.6	4	7	112	0.00	30.201 
16:35	65.6	65.6	65.6	31	34.1	2	5	112	0.00	30.201 
16:40	66.0	66.0	66.0	27	31.1	3	7	90	0.00	30.201 
16:45	65.8	65.8	65.8	27	30.9	4	8	90	0.00	30.195 
16:50	65.5	65.5	65.5	27	30.6	4	11	112	0.00	30.195 
16:55	65.5	65.5	65.5	27	30.6	3	8	90	0.00	30.195 
17:00	65.5	65.5	65.5	30	33.2	5	11	112	0.00	30.192 
17:05	65.3	65.3	65.3	28	31.4	4	10	90	0.00	30.192 
17:10	65.5	65.5	65.5	28	31.5	5	10	90	0.00	30.192 
17:15	65.3	65.3	65.3	27	30.5	3	10	90	0.00	30.196 
17:20	65.3	65.3	65.3	28	31.4	3	10	112	0.00	30.196 
17:25	65.3	65.3	65.3	28	31.4	3	9	112	0.00	30.196 
17:30	65.3	65.3	65.3	28	31.4	4	10	112	0.00	30.194 
17:35	65.0	65.0	65.0	27	30.2	4	7	112	0.00	30.194 
17:40	65.0	65.0	65.0	28	31.1	4	10	112	0.00	30.194 
17:45	65.0	65.0	65.0	28	31.1	3	9	112	0.00	30.198 
17:50	65.2	65.2	65.2	27	30.4	2	6	90	0.00	30.198 
17:55	64.8	64.8	64.8	28	30.9	4	13	90	0.00	30.198 
18:00	64.5	64.5	64.5	28	30.7	5	10	90	0.00	30.200 
18:05	64.3	64.3	64.3	27	29.6	4	9	90	0.00	30.200 
18:10	64.2	64.2	64.2	28	30.4	4	10	112	0.00	30.200 
18:15	64.2	64.2	64.2	28	30.4	4	11	90	0.00	30.207 
18:20	64.2	64.2	64.2	28	30.4	3	9	90	0.00	30.207 
18:25	64.2	64.2	64.2	28	30.4	3	9	90	0.00	30.207 
18:30	64.0	64.0	64.0	28	30.2	5	11	112	0.00	30.209 
18:35	63.9	63.9	63.9	27	29.3	4	7	112	0.00	30.209 
18:40	63.7	63.7	63.7	26	28.2	5	11	90	0.00	30.209 
18:45	63.4	63.4	63.4	26	27.9	4	9	112	0.00	30.208 
18:50	63.1	63.1	63.1	26	27.7	4	8	112	0.00	30.208 
18:55	62.9	62.9	62.9	27	28.4	3	9	112	0.00	30.208 
19:00	62.9	62.9	62.9	25	26.5	5	9	90	0.00	30.207 
19:05	62.7	62.7	62.7	26	27.3	4	7	90	0.00	30.207 
19:10	62.4	62.4	62.4	26	27.1	4	6	112	0.00	30.207 
19:15	62.4	62.4	62.4	25	26.1	4	9	90	0.00	30.209 
19:20	62.3	62.3	62.3	26	27.0	3	7	90	0.00	30.209 
19:25	62.0	62.0	62.0	26	26.7	4	10	90	0.00	30.209 
19:30	61.6	61.6	61.6	26	26.4	4	7	90	0.00	30.216 
19:35	61.3	61.3	61.3	27	27.0	3	7	112	0.00	30.216 
19:40	61.2	61.2	61.2	26	26.0	3	6	90	0.00	30.216 
19:45	60.9	60.9	60.9	28	27.6	3	6	90	0.00	30.216 
19:50	60.4	60.4	60.4	27	26.3	3	7	90	0.00	30.216 
19:55	60.1	60.1	60.1	27	26.0	3	7	90	0.00	30.216 
20:00	59.6	59.6	59.6	27	25.6	4	9	90	0.00	30.223 
20:05	59.3	59.3	59.3	28	26.2	4	7	112	0.00	30.223 
20:10	58.9	58.9	58.9	28	25.9	4	11	112	0.00	30.223 
20:15	58.4	58.4	58.4	30	27.1	3	6	90	0.00	30.221 
20:20	58.1	58.1	58.1	30	26.8	4	10	90	0.00	30.221 
20:25	57.6	57.6	57.6	32	28.0	3	7	90	0.00	30.221 
20:30	57.2	57.2	57.2	33	28.4	2	4	112	0.00	30.223 
20:35	56.6	56.6	56.6	32	27.1	3	6	90	0.00	30.223 
20:40	56.3	56.3	56.3	33	27.6	2	5	90	0.00	30.223 
20:45	56.0	56.0	56.0	32	26.6	3	6	90	0.00	30.229 
20:50	55.7	55.7	55.7	32	26.3	2	5	112	0.00	30.229 
20:55	55.3	55.3	55.3	32	26.0	2	4	90	0.00	30.229 
21:00	55.1	55.1	55.1	32	25.8	2	6	112	0.00	30.236 
21:05	54.8	54.8	54.8	33	26.3	2	6	112	0.00	30.236 
21:10	54.7	54.7	54.7	31	24.7	3	5	112	0.00	30.236 
21:15	54.4	54.4	54.4	32	25.2	2	4	90	0.00	30.238 
21:20	54.2	54.2	54.2	31	24.2	3	5	90	0.00	30.238 
21:25	53.9	53.9	53.9	31	24.0	3	6	90	0.00	30.238 
21:30	53.8	53.8	53.8	32	24.6	3	7	90	0.00	30.246 
21:35	53.5	53.5	53.5	33	25.1	2	4	90	0.00	30.246 
21:40	53.2	53.2	53.2	34	25.6	2	5	112	0.00	30.246 
21:45	52.9	52.9	52.9	35	26.0	3	7	112	0.00	30.250 
21:50	52.6	52.6	52.6	34	25.0	2	5	90	0.00	30.250 
21:55	52.3	52.3	52.3	35	25.5	2	4	90	0.00	30.250 
22:00	52.2	52.2	52.2	36	26.1	2	6	90	0.00	30.264 
22:05	51.9	51.9	51.9	36	25.8	2	4	90	0.00	30.264 
22:10	51.6	51.6	51.6	36	25.5	3	5	90	0.00	30.264 
22:15	51.4	51.4	51.4	36	25.4	3	5	90	0.00	30.261 
22:20	51.1	51.1	51.1	37	25.7	3	7	90	0.00	30.261 
22:25	50.8	50.8	50.8	38	26.1	3	7	112	0.00	30.261 
22:30	50.7	50.7	50.7	38	26.0	3	7	90	0.00	30.272 
22:35	50.4	50.4	50.4	38	25.8	3	10	90	0.00	30.272 
22:40	50.2	50.2	50.2	37	24.9	3	6	90	0.00	30.272 
22:45	49.9	49.9	49.9	38	25.3	3	7	90	0.00	30.277 
22:50	49.6	49.6	49.6	39	25.7	3	6	90	0.00	30.277 
22:55	49.4	49.4	49.4	41	26.7	2	4	90	0.00	30.277 
23:00	49.1	49.1	49.1	41	26.4	2	5	90	0.00	30.277 
23:05	48.8	48.8	48.8	41	26.2	3	5	90	0.00	30.277 
23:10	48.6	48.6	48.6	42	26.6	3	5	90	0.00	30.277 
23:15	48.5	48.5	48.5	41	25.9	3	10	90	0.00	30.274 
23:20	48.3	48.3	48.3	41	25.7	3	6	90	0.00	30.274 
23:25	48.2	48.2	48.2	41	25.6	3	6	90	0.00	30.274 
23:30	47.9	47.9	47.9	41	25.3	2	5	90	0.00	30.275 
23:35	47.7	47.7	47.7	42	25.7	3	7	90	0.00	30.275 
23:40	47.6	47.6	47.6	42	25.7	3	6	90	0.00	30.275 
23:45	47.3	47.3	47.3	43	25.9	3	6	112	0.00	30.271 
23:50	47.1	47.1	47.1	43	25.8	3	7	112	0.00	30.271 
23:55	47.0	47.0	47.0	43	25.7	3	6	90	0.00	30.271 

CoCoRaHS
IN-AL-39
A2 Web Hosting
Creative Commons License
GoDaddy
Look for:

loaded 2017-10-18 07:20:35 • last modified 2010-11-18 10:43:29
Privacy PolicyDisclaimer
• wx.awcolley.com is powered by PmWiki v.2002016 •
• all content (unless otherwise noted) © 2017 A W Colley